createdAt,value
2017-07-24T00:00:40.789Z,0
2017-07-24T00:01:41.405Z,0
2017-07-24T00:02:42.021Z,0
2017-07-24T00:03:42.640Z,0
2017-07-24T00:04:43.502Z,0
2017-07-24T00:05:44.118Z,0
2017-07-24T00:06:44.732Z,0
2017-07-24T00:07:45.347Z,0
2017-07-24T00:08:45.962Z,0
2017-07-24T00:09:46.882Z,0
2017-07-24T00:10:47.494Z,0
2017-07-24T00:11:48.111Z,0
2017-07-24T00:12:48.728Z,0
2017-07-24T00:13:49.348Z,0
2017-07-24T00:14:50.211Z,0
2017-07-24T00:15:50.826Z,0
2017-07-24T00:16:51.447Z,0
2017-07-24T00:17:52.058Z,0
2017-07-24T00:18:52.674Z,0
2017-07-24T00:19:53.538Z,0
2017-07-24T00:20:54.187Z,0
2017-07-24T00:21:54.806Z,0
2017-07-24T00:22:55.420Z,0
2017-07-24T00:23:56.070Z,0
2017-07-24T00:24:56.938Z,0
2017-07-24T00:25:57.559Z,0
2017-07-24T00:26:58.176Z,0
2017-07-24T00:27:58.828Z,0
2017-07-24T00:28:59.445Z,0
2017-07-24T00:30:00.364Z,0
2017-07-24T00:31:00.982Z,0
2017-07-24T00:32:01.593Z,0
2017-07-24T00:33:02.212Z,0
2017-07-24T00:34:02.827Z,0
2017-07-24T00:35:03.783Z,0
2017-07-24T00:36:04.394Z,0
2017-07-24T00:37:05.010Z,0
2017-07-24T00:38:05.631Z,0
2017-07-24T00:39:06.241Z,0
2017-07-24T00:40:07.162Z,0
2017-07-24T00:41:07.782Z,0
2017-07-24T00:42:08.395Z,0
2017-07-24T00:43:09.017Z,0
2017-07-24T00:44:09.636Z,0
2017-07-24T00:45:10.505Z,0
2017-07-24T00:46:11.118Z,0
2017-07-24T00:47:11.733Z,0
2017-07-24T00:48:12.351Z,0
2017-07-24T00:49:12.967Z,0
2017-07-24T00:50:13.837Z,0
2017-07-24T00:51:14.450Z,0
2017-07-24T00:52:15.064Z,0
2017-07-24T00:53:15.679Z,0
2017-07-24T00:54:16.328Z,0
2017-07-24T00:55:17.224Z,0
2017-07-24T00:56:17.839Z,0
2017-07-24T00:57:18.455Z,0
2017-07-24T00:58:19.076Z,0
2017-07-24T00:59:19.694Z,0
2017-07-24T01:00:20.564Z,0
2017-07-24T01:01:21.186Z,0
2017-07-24T01:02:21.799Z,0
2017-07-24T01:03:22.447Z,0
2017-07-24T01:04:23.062Z,0
2017-07-24T01:05:23.926Z,0
2017-07-24T01:06:24.547Z,0
2017-07-24T01:07:25.161Z,0
2017-07-24T01:08:25.772Z,0
2017-07-24T01:09:26.426Z,0
2017-07-24T01:10:27.289Z,0
2017-07-24T01:11:27.903Z,0
2017-07-24T01:12:28.516Z,0
2017-07-24T01:13:29.138Z,0
2017-07-24T01:14:29.783Z,0
2017-07-24T01:15:30.651Z,0
2017-07-24T01:16:31.268Z,0
2017-07-24T01:17:31.889Z,0
2017-07-24T01:18:32.500Z,0
2017-07-24T01:19:33.150Z,0
2017-07-24T01:20:34.016Z,0
2017-07-24T01:21:34.635Z,0
2017-07-24T01:22:35.281Z,0
2017-07-24T01:23:35.898Z,0
2017-07-24T01:24:36.514Z,0
2017-07-24T01:25:37.379Z,0
2017-07-24T01:26:38.000Z,0
2017-07-24T01:27:38.617Z,0
2017-07-24T01:28:39.232Z,0
2017-07-24T01:29:39.848Z,0
2017-07-24T01:30:40.713Z,0
2017-07-24T01:31:41.364Z,0
2017-07-24T01:32:41.980Z,0
2017-07-24T01:33:42.598Z,0
2017-07-24T01:34:43.213Z,0
2017-07-24T01:35:44.079Z,0
2017-07-24T01:36:44.693Z,0
2017-07-24T01:37:45.306Z,0
2017-07-24T01:38:45.922Z,0
2017-07-24T01:39:46.536Z,0
2017-07-24T01:40:47.406Z,0
2017-07-24T01:41:48.029Z,0
2017-07-24T01:42:48.641Z,0
2017-07-24T01:43:49.262Z,0
2017-07-24T01:44:49.880Z,0
2017-07-24T01:45:50.742Z,0
2017-07-24T01:46:51.365Z,0
2017-07-24T01:47:51.983Z,0
2017-07-24T01:48:52.600Z,0
2017-07-24T01:49:53.215Z,0
2017-07-24T01:50:54.112Z,0
2017-07-24T01:51:54.726Z,0
2017-07-24T01:52:55.346Z,0
2017-07-24T01:53:55.958Z,0
2017-07-24T01:54:56.573Z,0
2017-07-24T01:55:57.443Z,0
2017-07-24T01:56:58.091Z,0
2017-07-24T01:57:58.705Z,0
2017-07-24T01:58:59.322Z,0
2017-07-24T01:59:59.939Z,0
2017-07-24T02:01:00.809Z,0
2017-07-24T02:02:01.421Z,0
2017-07-24T02:03:02.042Z,0
2017-07-24T02:04:02.654Z,0
2017-07-24T02:05:03.273Z,0
2017-07-24T02:06:04.222Z,0
2017-07-24T02:07:04.832Z,0
2017-07-24T02:08:05.449Z,0
2017-07-24T02:09:06.067Z,0
2017-07-24T02:10:06.689Z,0
2017-07-24T02:11:07.555Z,0
2017-07-24T02:12:08.167Z,0
2017-07-24T02:13:08.786Z,0
2017-07-24T02:14:09.401Z,0
2017-07-24T02:15:10.050Z,0
2017-07-24T02:16:10.912Z,0
2017-07-24T02:17:11.528Z,0
2017-07-24T02:18:12.141Z,0
2017-07-24T02:19:12.788Z,0
2017-07-24T02:20:13.404Z,0
2017-07-24T02:21:14.268Z,0
2017-07-24T02:22:14.887Z,0
2017-07-24T02:23:15.501Z,0
2017-07-24T02:24:16.118Z,0
2017-07-24T02:25:16.732Z,0
2017-07-24T02:26:17.598Z,0
2017-07-24T02:27:18.247Z,0
2017-07-24T02:28:18.866Z,0
2017-07-24T02:29:19.513Z,0
2017-07-24T02:30:20.133Z,0
2017-07-24T02:31:20.996Z,0
2017-07-24T02:32:21.613Z,0
2017-07-24T02:33:22.227Z,0
2017-07-24T02:34:22.840Z,0
2017-07-24T02:35:23.455Z,0
2017-07-24T02:36:24.354Z,0
2017-07-24T02:37:24.974Z,0
2017-07-24T02:38:25.586Z,0
2017-07-24T02:39:26.203Z,0
2017-07-24T02:40:26.818Z,0
2017-07-24T02:41:27.769Z,0
2017-07-24T02:42:28.420Z,0
2017-07-24T02:43:29.040Z,0
2017-07-24T02:44:29.653Z,0
2017-07-24T02:45:30.266Z,0
2017-07-24T02:46:31.181Z,0
2017-07-24T02:47:31.796Z,0
2017-07-24T02:48:32.411Z,0
2017-07-24T02:49:33.028Z,0
2017-07-24T02:50:33.643Z,0
2017-07-24T02:51:34.514Z,0
2017-07-24T02:52:35.128Z,0
2017-07-24T02:53:35.747Z,0
2017-07-24T02:54:36.364Z,0
2017-07-24T02:55:36.978Z,0
2017-07-24T02:56:37.849Z,0
2017-07-24T02:57:38.470Z,0
2017-07-24T02:58:39.076Z,0
2017-07-24T02:59:39.691Z,0
2017-07-24T03:00:40.309Z,0
2017-07-24T03:01:41.181Z,0
2017-07-24T03:02:41.794Z,0
2017-07-24T03:03:42.408Z,0
2017-07-24T03:04:43.025Z,0
2017-07-24T03:05:43.646Z,0
2017-07-24T03:06:44.543Z,0
2017-07-24T03:07:45.191Z,0
2017-07-24T03:08:45.809Z,0
2017-07-24T03:09:46.422Z,0
2017-07-24T03:10:47.073Z,0
2017-07-24T03:11:48.021Z,0
2017-07-24T03:12:48.634Z,0
2017-07-24T03:13:49.255Z,0
2017-07-24T03:14:49.898Z,0
2017-07-24T03:15:50.511Z,0
2017-07-24T03:16:51.376Z,0
2017-07-24T03:17:51.992Z,0
2017-07-24T03:18:52.643Z,0
2017-07-24T03:19:53.257Z,0
2017-07-24T03:20:53.878Z,0
2017-07-24T03:21:54.737Z,0
2017-07-24T03:22:55.352Z,0
2017-07-24T03:23:56.000Z,0
2017-07-24T03:24:56.613Z,0
2017-07-24T03:25:57.227Z,0
2017-07-24T03:26:58.123Z,0
2017-07-24T03:27:58.743Z,0
2017-07-24T03:28:59.360Z,0
2017-07-24T03:29:59.977Z,0
2017-07-24T03:31:00.592Z,0
2017-07-24T03:32:01.536Z,0
2017-07-24T03:33:02.148Z,0
2017-07-24T03:34:02.763Z,0
2017-07-24T03:35:03.376Z,0
2017-07-24T03:36:03.989Z,0
2017-07-24T03:37:04.888Z,0
2017-07-24T03:38:05.509Z,0
2017-07-24T03:39:06.119Z,0
2017-07-24T03:40:06.732Z,0
2017-07-24T03:41:07.345Z,0
2017-07-24T03:42:08.264Z,0
2017-07-24T03:43:08.877Z,0
2017-07-24T03:44:09.528Z,0
2017-07-24T03:45:10.141Z,0
2017-07-24T03:46:10.757Z,0
2017-07-24T03:47:11.675Z,0
2017-07-24T03:48:12.286Z,0
2017-07-24T03:49:12.901Z,0
2017-07-24T03:50:13.513Z,0
2017-07-24T03:51:14.127Z,0
2017-07-24T03:52:14.999Z,0
2017-07-24T03:53:15.609Z,0
2017-07-24T03:54:16.228Z,0
2017-07-24T03:55:16.839Z,0
2017-07-24T03:56:17.485Z,0
2017-07-24T03:57:18.349Z,0
2017-07-24T03:58:18.963Z,0
2017-07-24T03:59:19.575Z,0
2017-07-24T04:00:20.195Z,0
2017-07-24T04:01:20.806Z,0
2017-07-24T04:02:21.727Z,0
2017-07-24T04:03:22.337Z,0
2017-07-24T04:04:22.959Z,0
2017-07-24T04:05:23.569Z,0
2017-07-24T04:06:24.186Z,0
2017-07-24T04:07:25.101Z,0
2017-07-24T04:08:25.711Z,0
2017-07-24T04:09:26.325Z,4
2017-07-24T04:10:26.938Z,0
2017-07-24T04:11:27.553Z,0
2017-07-24T04:12:28.418Z,4
2017-07-24T04:13:29.035Z,0
2017-07-24T04:14:29.686Z,0
2017-07-24T04:15:30.302Z,4
2017-07-24T04:16:30.949Z,0
2017-07-24T04:17:31.813Z,4
2017-07-24T04:18:32.425Z,4
2017-07-24T04:19:33.040Z,0
2017-07-24T04:20:33.654Z,0
2017-07-24T04:21:34.273Z,4
2017-07-24T04:22:35.135Z,0
2017-07-24T04:23:35.753Z,0
2017-07-24T04:24:36.363Z,0
2017-07-24T04:25:37.013Z,4
2017-07-24T04:26:37.624Z,0
2017-07-24T04:27:38.545Z,0
2017-07-24T04:28:39.156Z,4
2017-07-24T04:29:39.776Z,4
2017-07-24T04:30:40.392Z,0
2017-07-24T04:31:41.003Z,0
2017-07-24T04:32:41.874Z,4
2017-07-24T04:33:42.511Z,4
2017-07-24T04:34:43.131Z,0
2017-07-24T04:35:43.745Z,0
2017-07-24T04:36:44.354Z,4
2017-07-24T04:37:45.257Z,0
2017-07-24T04:38:45.867Z,4
2017-07-24T04:39:46.515Z,4
2017-07-24T04:40:47.129Z,4
2017-07-24T04:41:47.748Z,4
2017-07-24T04:42:48.616Z,4
2017-07-24T04:43:49.227Z,8
2017-07-24T04:44:49.845Z,4
2017-07-24T04:45:50.462Z,8
2017-07-24T04:46:51.071Z,8
2017-07-24T04:47:51.940Z,8
2017-07-24T04:48:52.555Z,4
2017-07-24T04:49:53.168Z,4
2017-07-24T04:50:53.782Z,4
2017-07-24T04:51:54.394Z,8
2017-07-24T04:52:55.258Z,4
2017-07-24T04:53:55.875Z,8
2017-07-24T04:54:56.522Z,4
2017-07-24T04:55:57.135Z,4
2017-07-24T04:56:57.753Z,8
2017-07-24T04:57:58.613Z,8
2017-07-24T04:58:59.261Z,8
2017-07-24T04:59:59.879Z,4
2017-07-24T05:01:00.488Z,8
2017-07-24T05:02:01.104Z,12
2017-07-24T05:03:02.001Z,8
2017-07-24T05:04:02.653Z,12
2017-07-24T05:05:03.264Z,12
2017-07-24T05:06:03.876Z,12
2017-07-24T05:07:04.491Z,12
2017-07-24T05:08:05.357Z,8
2017-07-24T05:09:05.970Z,8
2017-07-24T05:10:06.589Z,8
2017-07-24T05:11:07.201Z,8
2017-07-24T05:12:07.815Z,12
2017-07-24T05:13:08.683Z,8
2017-07-24T05:14:09.293Z,12
2017-07-24T05:15:09.904Z,8
2017-07-24T05:16:10.538Z,8
2017-07-24T05:17:11.156Z,12
2017-07-24T05:18:12.050Z,12
2017-07-24T05:19:12.698Z,12
2017-07-24T05:20:13.314Z,12
2017-07-24T05:21:13.925Z,12
2017-07-24T05:22:14.545Z,12
2017-07-24T05:23:15.408Z,12
2017-07-24T05:24:16.060Z,16
2017-07-24T05:25:16.677Z,16
2017-07-24T05:26:17.292Z,16
2017-07-24T05:27:17.908Z,16
2017-07-24T05:28:18.805Z,16
2017-07-24T05:29:19.420Z,20
2017-07-24T05:30:20.033Z,16
2017-07-24T05:31:20.681Z,20
2017-07-24T05:32:21.293Z,20
2017-07-24T05:33:22.157Z,20
2017-07-24T05:34:22.803Z,16
2017-07-24T05:35:23.418Z,16
2017-07-24T05:36:24.032Z,16
2017-07-24T05:37:24.655Z,12
2017-07-24T05:38:25.518Z,12
2017-07-24T05:39:26.133Z,12
2017-07-24T05:40:26.754Z,16
2017-07-24T05:41:27.366Z,16
2017-07-24T05:42:27.982Z,16
2017-07-24T05:43:28.850Z,16
2017-07-24T05:44:29.496Z,16
2017-07-24T05:45:30.109Z,20
2017-07-24T05:46:30.724Z,20
2017-07-24T05:47:31.340Z,16
2017-07-24T05:48:32.206Z,16
2017-07-24T05:49:32.854Z,16
2017-07-24T05:50:33.471Z,16
2017-07-24T05:51:34.086Z,16
2017-07-24T05:52:34.733Z,12
2017-07-24T05:53:35.602Z,16
2017-07-24T05:54:36.215Z,20
2017-07-24T05:55:36.829Z,20
2017-07-24T05:56:37.443Z,24
2017-07-24T05:57:38.062Z,24
2017-07-24T05:58:38.926Z,28
2017-07-24T05:59:39.547Z,28
2017-07-24T06:00:40.157Z,28
2017-07-24T06:01:40.774Z,28
2017-07-24T06:02:41.384Z,28
2017-07-24T06:03:42.249Z,28
2017-07-24T06:04:42.869Z,28
2017-07-24T06:05:43.480Z,32
2017-07-24T06:06:44.095Z,32
2017-07-24T06:07:44.749Z,32
2017-07-24T06:08:45.613Z,36
2017-07-24T06:09:46.228Z,32
2017-07-24T06:10:46.841Z,36
2017-07-24T06:11:47.455Z,32
2017-07-24T06:12:48.070Z,36
2017-07-24T06:13:48.934Z,36
2017-07-24T06:14:49.547Z,36
2017-07-24T06:15:50.161Z,36
2017-07-24T06:16:50.814Z,36
2017-07-24T06:17:51.459Z,40
2017-07-24T06:18:52.379Z,44
2017-07-24T06:19:52.991Z,48
2017-07-24T06:20:53.605Z,48
2017-07-24T06:21:54.225Z,48
2017-07-24T06:22:54.878Z,48
2017-07-24T06:23:55.791Z,60
2017-07-24T06:24:56.408Z,60
2017-07-24T06:25:57.020Z,64
2017-07-24T06:26:57.639Z,64
2017-07-24T06:27:58.251Z,68
2017-07-24T06:28:59.116Z,64
2017-07-24T06:29:59.729Z,64
2017-07-24T06:31:00.348Z,56
2017-07-24T06:32:00.961Z,60
2017-07-24T06:33:01.578Z,56
2017-07-24T06:34:02.448Z,60
2017-07-24T06:35:03.057Z,64
2017-07-24T06:36:03.671Z,72
2017-07-24T06:37:04.284Z,76
2017-07-24T06:38:04.897Z,84
2017-07-24T06:39:05.763Z,88
2017-07-24T06:40:06.378Z,88
2017-07-24T06:41:07.000Z,92
2017-07-24T06:42:07.614Z,88
2017-07-24T06:43:08.224Z,88
2017-07-24T06:44:09.088Z,84
2017-07-24T06:45:09.704Z,80
2017-07-24T06:46:10.318Z,80
2017-07-24T06:47:10.932Z,76
2017-07-24T06:48:11.553Z,72
2017-07-24T06:49:12.422Z,76
2017-07-24T06:50:13.039Z,76
2017-07-24T06:51:13.656Z,72
2017-07-24T06:52:14.268Z,76
2017-07-24T06:53:14.882Z,72
2017-07-24T06:54:15.753Z,76
2017-07-24T06:55:16.366Z,72
2017-07-24T06:56:16.980Z,72
2017-07-24T06:57:17.594Z,76
2017-07-24T06:58:18.210Z,72
2017-07-24T06:59:19.114Z,76
2017-07-24T07:00:19.731Z,72
2017-07-24T07:01:20.342Z,72
2017-07-24T07:02:20.995Z,72
2017-07-24T07:03:21.617Z,76
2017-07-24T07:04:22.488Z,80
2017-07-24T07:05:23.136Z,84
2017-07-24T07:06:23.751Z,96
2017-07-24T07:07:24.367Z,96
2017-07-24T07:08:24.990Z,104
2017-07-24T07:09:25.891Z,116
2017-07-24T07:10:26.513Z,124
2017-07-24T07:11:27.134Z,136
2017-07-24T07:12:27.748Z,144
2017-07-24T07:13:28.405Z,148
2017-07-24T07:14:29.270Z,160
2017-07-24T07:15:29.886Z,172
2017-07-24T07:16:30.504Z,172
2017-07-24T07:17:31.127Z,160
2017-07-24T07:18:31.741Z,152
2017-07-24T07:19:32.612Z,148
2017-07-24T07:20:33.232Z,152
2017-07-24T07:21:33.849Z,140
2017-07-24T07:22:34.466Z,128
2017-07-24T07:23:35.082Z,116
2017-07-24T07:24:35.998Z,104
2017-07-24T07:25:36.613Z,92
2017-07-24T07:26:37.228Z,92
2017-07-24T07:27:37.845Z,92
2017-07-24T07:28:38.461Z,96
2017-07-24T07:29:39.327Z,92
2017-07-24T07:30:39.943Z,92
2017-07-24T07:31:40.558Z,96
2017-07-24T07:32:41.172Z,96
2017-07-24T07:33:41.789Z,88
2017-07-24T07:34:42.697Z,84
2017-07-24T07:35:43.346Z,88
2017-07-24T07:36:43.961Z,92
2017-07-24T07:37:44.582Z,84
2017-07-24T07:38:45.198Z,88
2017-07-24T07:39:46.061Z,100
2017-07-24T07:40:46.677Z,108
2017-07-24T07:41:47.296Z,108
2017-07-24T07:42:47.919Z,120
2017-07-24T07:43:48.534Z,132
2017-07-24T07:44:49.406Z,144
2017-07-24T07:45:50.019Z,148
2017-07-24T07:46:50.643Z,156
2017-07-24T07:47:51.255Z,172
2017-07-24T07:48:51.871Z,188
2017-07-24T07:49:52.794Z,192
2017-07-24T07:50:53.412Z,184
2017-07-24T07:51:54.029Z,176
2017-07-24T07:52:54.649Z,176
2017-07-24T07:53:55.265Z,176
2017-07-24T07:54:56.131Z,168
2017-07-24T07:55:56.748Z,176
2017-07-24T07:56:57.368Z,180
2017-07-24T07:57:57.985Z,184
2017-07-24T07:58:58.633Z,200
2017-07-24T07:59:59.552Z,212
2017-07-24T08:01:00.174Z,220
2017-07-24T08:02:00.823Z,220
2017-07-24T08:03:01.441Z,216
2017-07-24T08:04:02.066Z,204
2017-07-24T08:05:02.932Z,212
2017-07-24T08:06:03.552Z,228
2017-07-24T08:07:04.205Z,212
2017-07-24T08:08:04.853Z,184
2017-07-24T08:09:05.468Z,168
2017-07-24T08:10:06.336Z,148
2017-07-24T08:11:06.955Z,148
2017-07-24T08:12:07.573Z,144
2017-07-24T08:13:08.191Z,148
2017-07-24T08:14:08.812Z,156
2017-07-24T08:15:09.677Z,164
2017-07-24T08:16:10.327Z,176
2017-07-24T08:17:10.951Z,172
2017-07-24T08:18:11.570Z,168
2017-07-24T08:19:12.190Z,172
2017-07-24T08:20:13.054Z,176
2017-07-24T08:21:13.672Z,176
2017-07-24T08:22:14.323Z,172
2017-07-24T08:23:14.939Z,180
2017-07-24T08:24:15.561Z,188
2017-07-24T08:25:16.424Z,192
2017-07-24T08:26:17.040Z,192
2017-07-24T08:27:17.659Z,180
2017-07-24T08:28:18.315Z,168
2017-07-24T08:29:18.933Z,168
2017-07-24T08:30:19.803Z,180
2017-07-24T08:31:20.420Z,188
2017-07-24T08:32:21.036Z,188
2017-07-24T08:33:21.653Z,180
2017-07-24T08:34:22.270Z,176
2017-07-24T08:35:23.192Z,184
2017-07-24T08:36:23.812Z,188
2017-07-24T08:37:24.432Z,196
2017-07-24T08:38:25.046Z,196
2017-07-24T08:39:25.670Z,200
2017-07-24T08:40:26.535Z,220
2017-07-24T08:41:27.151Z,248
2017-07-24T08:42:27.768Z,248
2017-07-24T08:43:28.384Z,212
2017-07-24T08:44:29.001Z,180
2017-07-24T08:45:29.901Z,172
2017-07-24T08:46:30.520Z,192
2017-07-24T08:47:31.141Z,220
2017-07-24T08:48:31.755Z,228
2017-07-24T08:49:32.373Z,216
2017-07-24T08:50:33.242Z,212
2017-07-24T08:51:33.863Z,228
2017-07-24T08:52:34.484Z,240
2017-07-24T08:53:35.097Z,228
2017-07-24T08:54:35.719Z,196
2017-07-24T08:55:36.584Z,184
2017-07-24T08:56:37.200Z,184
2017-07-24T08:57:37.852Z,184
2017-07-24T08:58:38.467Z,212
2017-07-24T08:59:39.085Z,248
2017-07-24T09:00:39.952Z,248
2017-07-24T09:01:40.574Z,224
2017-07-24T09:02:41.186Z,192
2017-07-24T09:03:41.802Z,188
2017-07-24T09:04:42.421Z,184
2017-07-24T09:05:43.290Z,172
2017-07-24T09:06:43.913Z,168
2017-07-24T09:07:44.532Z,172
2017-07-24T09:08:45.154Z,196
2017-07-24T09:09:46.008Z,228
2017-07-24T09:10:46.877Z,260
2017-07-24T09:11:47.502Z,288
2017-07-24T09:12:48.115Z,304
2017-07-24T09:13:48.733Z,304
2017-07-24T09:14:49.350Z,296
2017-07-24T09:15:50.216Z,296
2017-07-24T09:16:50.832Z,332
2017-07-24T09:17:51.450Z,364
2017-07-24T09:18:52.068Z,344
2017-07-24T09:19:52.690Z,300
2017-07-24T09:20:53.555Z,284
2017-07-24T09:21:54.170Z,272
2017-07-24T09:22:54.826Z,252
2017-07-24T09:23:55.439Z,240
2017-07-24T09:24:56.058Z,216
2017-07-24T09:25:56.925Z,192
2017-07-24T09:26:57.543Z,136
2017-07-24T09:27:58.159Z,156
2017-07-24T09:28:58.776Z,200
2017-07-24T09:29:59.392Z,184
2017-07-24T09:31:00.261Z,168
2017-07-24T09:32:00.882Z,156
2017-07-24T09:33:01.504Z,168
2017-07-24T09:34:02.119Z,192
2017-07-24T09:35:02.735Z,216
2017-07-24T09:36:03.603Z,196
2017-07-24T09:37:04.223Z,172
2017-07-24T09:38:04.884Z,176
2017-07-24T09:39:05.498Z,168
2017-07-24T09:40:06.120Z,184
2017-07-24T09:41:06.990Z,224
2017-07-24T09:42:07.608Z,268
2017-07-24T09:43:08.225Z,288
2017-07-24T09:44:08.872Z,316
2017-07-24T09:45:09.490Z,408
2017-07-24T09:46:10.364Z,344
2017-07-24T09:47:10.978Z,364
2017-07-24T09:48:11.597Z,408
2017-07-24T09:49:12.216Z,372
2017-07-24T09:50:12.838Z,296
2017-07-24T09:51:13.753Z,252
2017-07-24T09:52:14.373Z,256
2017-07-24T09:53:14.998Z,296
2017-07-24T09:54:15.613Z,308
2017-07-24T09:55:16.230Z,364
2017-07-24T09:56:17.131Z,288
2017-07-24T09:57:17.780Z,508
2017-07-24T09:58:18.397Z,600
2017-07-24T09:59:19.014Z,340
2017-07-24T10:00:19.639Z,316
2017-07-24T10:01:20.541Z,308
2017-07-24T10:02:21.161Z,388
2017-07-24T10:03:21.813Z,508
2017-07-24T10:04:22.434Z,432
2017-07-24T10:05:23.053Z,428
2017-07-24T10:06:23.915Z,800
2017-07-24T10:07:24.532Z,744
2017-07-24T10:08:25.162Z,568
2017-07-24T10:09:25.777Z,592
2017-07-24T10:10:26.396Z,364
2017-07-24T10:11:27.264Z,400
2017-07-24T10:12:27.883Z,440
2017-07-24T10:13:28.513Z,748
2017-07-24T10:14:29.129Z,772
2017-07-24T10:15:29.751Z,764
2017-07-24T10:16:30.618Z,628
2017-07-24T10:17:31.248Z,788
2017-07-24T10:18:31.902Z,664
2017-07-24T10:19:32.557Z,516
2017-07-24T10:20:33.171Z,828
2017-07-24T10:21:34.092Z,768
2017-07-24T10:22:34.709Z,760
2017-07-24T10:23:35.329Z,448
2017-07-24T10:24:35.947Z,552
2017-07-24T10:25:36.564Z,560
2017-07-24T10:26:37.487Z,408
2017-07-24T10:27:38.103Z,520
2017-07-24T10:28:38.722Z,480
2017-07-24T10:29:39.344Z,488
2017-07-24T10:30:39.957Z,880
2017-07-24T10:31:40.827Z,864
2017-07-24T10:32:41.446Z,864
2017-07-24T10:33:42.068Z,500
2017-07-24T10:34:42.688Z,436
2017-07-24T10:35:43.306Z,820
2017-07-24T10:36:44.176Z,644
2017-07-24T10:37:44.794Z,848
2017-07-24T10:38:45.414Z,812
2017-07-24T10:39:46.032Z,808
2017-07-24T10:40:46.651Z,812
2017-07-24T10:41:47.609Z,824
2017-07-24T10:42:48.231Z,848
2017-07-24T10:43:48.853Z,868
2017-07-24T10:44:49.475Z,876
2017-07-24T10:45:50.095Z,864
2017-07-24T10:46:50.968Z,864
2017-07-24T10:47:51.594Z,872
2017-07-24T10:48:52.248Z,896
2017-07-24T10:49:52.864Z,940
2017-07-24T10:50:53.485Z,1020
2017-07-24T10:51:54.360Z,912
2017-07-24T10:52:54.977Z,432
2017-07-24T10:53:55.598Z,536
2017-07-24T10:54:56.216Z,612
2017-07-24T10:55:56.837Z,884
2017-07-24T10:56:57.704Z,404
2017-07-24T10:57:58.329Z,328
2017-07-24T10:58:58.946Z,248
2017-07-24T10:59:59.572Z,260
2017-07-24T11:01:00.189Z,660
2017-07-24T11:02:01.064Z,324
2017-07-24T11:03:01.681Z,368
2017-07-24T11:04:02.306Z,480
2017-07-24T11:05:02.932Z,852
2017-07-24T11:06:03.544Z,720
2017-07-24T11:07:04.463Z,756
2017-07-24T11:08:05.122Z,732
2017-07-24T11:09:05.742Z,968
2017-07-24T11:10:06.359Z,840
2017-07-24T11:11:07.015Z,500
2017-07-24T11:12:07.885Z,616
2017-07-24T11:13:08.508Z,852
2017-07-24T11:14:09.125Z,1032
2017-07-24T11:15:09.748Z,1044
2017-07-24T11:16:10.366Z,1048
2017-07-24T11:17:11.237Z,1036
2017-07-24T11:18:11.864Z,1008
2017-07-24T11:19:12.478Z,952
2017-07-24T11:20:13.104Z,452
2017-07-24T11:21:13.719Z,924
2017-07-24T11:22:14.589Z,1168
2017-07-24T11:23:15.211Z,1112
2017-07-24T11:24:15.836Z,1280
2017-07-24T11:25:16.455Z,716
2017-07-24T11:26:17.078Z,604
2017-07-24T11:27:17.948Z,684
2017-07-24T11:28:18.568Z,700
2017-07-24T11:29:19.185Z,512
2017-07-24T11:30:19.806Z,504
2017-07-24T11:31:20.427Z,496
2017-07-24T11:32:21.300Z,432
2017-07-24T11:33:21.925Z,428
2017-07-24T11:34:22.542Z,464
2017-07-24T11:35:23.161Z,532
2017-07-24T11:36:23.783Z,696
2017-07-24T11:37:24.652Z,432
2017-07-24T11:38:25.272Z,428
2017-07-24T11:39:25.890Z,468
2017-07-24T11:40:26.510Z,700
2017-07-24T11:41:27.132Z,580
2017-07-24T11:42:28.042Z,468
2017-07-24T11:43:28.663Z,432
2017-07-24T11:44:29.282Z,376
2017-07-24T11:45:29.907Z,352
2017-07-24T11:46:30.524Z,328
2017-07-24T11:47:31.396Z,316
2017-07-24T11:48:32.016Z,324
2017-07-24T11:49:32.633Z,324
2017-07-24T11:50:33.255Z,256
2017-07-24T11:51:33.873Z,228
2017-07-24T11:52:34.745Z,220
2017-07-24T11:53:35.365Z,216
2017-07-24T11:54:35.990Z,212
2017-07-24T11:55:36.607Z,244
2017-07-24T11:56:37.227Z,272
2017-07-24T11:57:38.131Z,276
2017-07-24T11:58:38.750Z,392
2017-07-24T11:59:39.375Z,488
2017-07-24T12:00:39.994Z,508
2017-07-24T12:01:40.641Z,580
2017-07-24T12:02:41.560Z,468
2017-07-24T12:03:42.178Z,468
2017-07-24T12:04:42.802Z,520
2017-07-24T12:05:43.418Z,612
2017-07-24T12:06:44.036Z,1212
2017-07-24T12:07:44.907Z,1148
2017-07-24T12:08:45.527Z,696
2017-07-24T12:09:46.149Z,608
2017-07-24T12:10:46.769Z,544
2017-07-24T12:11:47.393Z,532
2017-07-24T12:12:48.260Z,532
2017-07-24T12:13:48.882Z,512
2017-07-24T12:14:49.499Z,520
2017-07-24T12:15:50.119Z,552
2017-07-24T12:16:50.781Z,1176
2017-07-24T12:17:51.646Z,772
2017-07-24T12:18:52.274Z,756
2017-07-24T12:19:52.886Z,692
2017-07-24T12:20:53.510Z,808
2017-07-24T12:21:54.134Z,1028
2017-07-24T12:22:55.000Z,1000
2017-07-24T12:23:55.621Z,1056
2017-07-24T12:24:56.242Z,1068
2017-07-24T12:25:56.862Z,1096
2017-07-24T12:26:57.484Z,1156
2017-07-24T12:27:58.354Z,1288
2017-07-24T12:28:58.973Z,1176
2017-07-24T12:29:59.593Z,520
2017-07-24T12:31:00.211Z,468
2017-07-24T12:32:00.833Z,484
2017-07-24T12:33:01.755Z,632
2017-07-24T12:34:02.376Z,740
2017-07-24T12:35:03.003Z,444
2017-07-24T12:36:03.626Z,324
2017-07-24T12:37:04.282Z,260
2017-07-24T12:38:05.150Z,244
2017-07-24T12:39:05.807Z,252
2017-07-24T12:40:06.426Z,272
2017-07-24T12:41:07.051Z,328
2017-07-24T12:42:07.673Z,492
2017-07-24T12:43:08.591Z,520
2017-07-24T12:44:09.211Z,1040
2017-07-24T12:45:09.836Z,560
2017-07-24T12:46:10.452Z,540
2017-07-24T12:47:11.072Z,604
2017-07-24T12:48:11.947Z,660
2017-07-24T12:49:12.563Z,792
2017-07-24T12:50:13.180Z,396
2017-07-24T12:51:13.801Z,324
2017-07-24T12:52:14.422Z,316
2017-07-24T12:53:15.336Z,316
2017-07-24T12:54:15.986Z,328
2017-07-24T12:55:16.607Z,392
2017-07-24T12:56:17.229Z,812
2017-07-24T12:57:17.845Z,868
2017-07-24T12:58:18.717Z,392
2017-07-24T12:59:19.337Z,416
2017-07-24T13:00:19.963Z,464
2017-07-24T13:01:20.577Z,336
2017-07-24T13:02:21.199Z,328
2017-07-24T13:03:22.067Z,380
2017-07-24T13:04:22.689Z,828
2017-07-24T13:05:23.307Z,1144
2017-07-24T13:06:23.927Z,1100
2017-07-24T13:07:24.547Z,1108
2017-07-24T13:08:25.468Z,1096
2017-07-24T13:09:26.093Z,1048
2017-07-24T13:10:26.711Z,1124
2017-07-24T13:11:27.363Z,696
2017-07-24T13:12:27.982Z,632
2017-07-24T13:13:28.849Z,764
2017-07-24T13:14:29.469Z,328
2017-07-24T13:15:30.132Z,276
2017-07-24T13:16:30.746Z,280
2017-07-24T13:17:31.364Z,284
2017-07-24T13:18:32.233Z,296
2017-07-24T13:19:32.861Z,316
2017-07-24T13:20:33.505Z,316
2017-07-24T13:21:34.122Z,1108
2017-07-24T13:22:34.749Z,1404
2017-07-24T13:23:35.614Z,1116
2017-07-24T13:24:36.233Z,1020
2017-07-24T13:25:36.855Z,908
2017-07-24T13:26:37.472Z,1292
2017-07-24T13:27:38.096Z,896
2017-07-24T13:28:39.022Z,908
2017-07-24T13:29:39.645Z,1324
2017-07-24T13:30:40.261Z,1288
2017-07-24T13:31:40.880Z,1268
2017-07-24T13:32:41.535Z,1204
2017-07-24T13:33:42.405Z,428
2017-07-24T13:34:43.026Z,1212
2017-07-24T13:35:43.648Z,416
2017-07-24T13:36:44.266Z,736
2017-07-24T13:37:44.888Z,392
2017-07-24T13:38:45.765Z,348
2017-07-24T13:39:46.386Z,372
2017-07-24T13:40:47.038Z,360
2017-07-24T13:41:47.658Z,412
2017-07-24T13:42:48.278Z,684
2017-07-24T13:43:49.200Z,448
2017-07-24T13:44:50.092Z,376
2017-07-24T13:45:50.711Z,368
2017-07-24T13:46:51.332Z,316
2017-07-24T13:47:51.951Z,332
2017-07-24T13:48:52.871Z,460
2017-07-24T13:49:53.488Z,436
2017-07-24T13:50:54.107Z,436
2017-07-24T13:51:54.759Z,1304
2017-07-24T13:52:55.381Z,1416
2017-07-24T13:53:56.254Z,764
2017-07-24T13:54:56.877Z,1228
2017-07-24T13:55:57.493Z,1316
2017-07-24T13:56:58.112Z,1388
2017-07-24T13:57:58.733Z,1296
2017-07-24T13:58:59.653Z,1264
2017-07-24T14:00:00.277Z,1308
2017-07-24T14:01:00.894Z,924
2017-07-24T14:02:01.514Z,1324
2017-07-24T14:03:02.135Z,1296
2017-07-24T14:04:03.007Z,1308
2017-07-24T14:05:03.629Z,1260
2017-07-24T14:06:04.248Z,768
2017-07-24T14:07:04.877Z,1488
2017-07-24T14:08:05.494Z,640
2017-07-24T14:09:06.364Z,1216
2017-07-24T14:10:07.019Z,1232
2017-07-24T14:11:07.669Z,568
2017-07-24T14:12:08.290Z,300
2017-07-24T14:13:08.911Z,1268
2017-07-24T14:14:09.783Z,1268
2017-07-24T14:15:10.409Z,272
2017-07-24T14:16:11.064Z,600
2017-07-24T14:17:11.683Z,892
2017-07-24T14:18:12.303Z,1256
2017-07-24T14:19:13.173Z,1244